createdAt,value
2024-05-09T00:00:39.995Z,100.00
2024-05-09T00:03:08.570Z,100.00
2024-05-09T00:05:36.997Z,100.00
2024-05-09T00:08:04.462Z,100.00
2024-05-09T00:10:36.419Z,100.00
2024-05-09T00:13:05.922Z,100.00
2024-05-09T00:15:33.835Z,100.00
2024-05-09T00:18:01.133Z,100.00
2024-05-09T00:20:33.536Z,100.00
2024-05-09T00:23:07.389Z,100.00
2024-05-09T00:25:34.881Z,100.00
2024-05-09T00:28:01.915Z,100.00
2024-05-09T00:30:34.267Z,100.00
2024-05-09T00:33:05.019Z,100.00
2024-05-09T00:35:33.076Z,100.00
2024-05-09T00:38:00.118Z,100.00
2024-05-09T00:40:37.664Z,100.00
2024-05-09T00:43:07.511Z,100.00
2024-05-09T00:45:35.122Z,100.00
2024-05-09T00:48:07.066Z,100.00
2024-05-09T00:50:38.168Z,100.00
2024-05-09T00:53:11.084Z,100.00
2024-05-09T00:55:39.288Z,100.00
2024-05-09T00:58:09.946Z,100.00
2024-05-09T01:00:40.014Z,100.00
2024-05-09T01:03:13.182Z,100.00
2024-05-09T01:05:42.148Z,100.00
2024-05-09T01:08:10.400Z,100.00
2024-05-09T01:10:37.883Z,100.00
2024-05-09T01:13:05.414Z,100.00
2024-05-09T01:15:33.450Z,100.00
2024-05-09T01:18:07.760Z,100.00
2024-05-09T01:20:41.333Z,100.00
2024-05-09T01:23:11.610Z,100.00
2024-05-09T01:25:38.755Z,100.00
2024-05-09T01:28:06.136Z,100.00
2024-05-09T01:30:35.923Z,100.00
2024-05-09T01:33:06.265Z,100.00
2024-05-09T01:35:34.783Z,100.00
2024-05-09T01:38:01.748Z,100.00
2024-05-09T01:40:37.081Z,100.00
2024-05-09T01:43:07.380Z,100.00
2024-05-09T01:45:34.235Z,100.00
2024-05-09T01:48:01.300Z,100.00
2024-05-09T01:50:37.774Z,100.00
2024-05-09T01:53:08.802Z,100.00
2024-05-09T01:55:35.769Z,100.00
2024-05-09T01:58:02.578Z,100.00
2024-05-09T02:00:38.171Z,100.00
2024-05-09T02:03:15.505Z,100.00
2024-05-09T02:05:49.709Z,100.00
2024-05-09T02:08:19.180Z,100.00
2024-05-09T02:10:47.794Z,100.00
2024-05-09T02:13:15.570Z,100.00
2024-05-09T02:15:42.567Z,100.00
2024-05-09T02:18:10.433Z,100.00
2024-05-09T02:20:41.443Z,100.00
2024-05-09T02:23:09.795Z,100.00
2024-05-09T02:25:36.647Z,100.00
2024-05-09T02:28:03.332Z,100.00
2024-05-09T02:30:38.754Z,100.00
2024-05-09T02:33:13.013Z,100.00
2024-05-09T02:35:41.623Z,100.00
2024-05-09T02:38:10.061Z,100.00
2024-05-09T02:40:39.069Z,100.00
2024-05-09T02:43:08.857Z,100.00
2024-05-09T02:45:36.969Z,100.00
2024-05-09T02:48:04.135Z,100.00
2024-05-09T02:50:37.805Z,100.00
2024-05-09T02:53:11.355Z,100.00
2024-05-09T02:55:38.827Z,100.00
2024-05-09T02:58:09.294Z,100.00
2024-05-09T03:00:40.218Z,100.00
2024-05-09T03:03:11.828Z,100.00
2024-05-09T03:05:42.603Z,100.00
2024-05-09T03:08:09.981Z,100.00
2024-05-09T03:10:38.652Z,100.00
2024-05-09T03:13:07.559Z,100.00
2024-05-09T03:15:34.475Z,100.00
2024-05-09T03:18:01.708Z,100.00
2024-05-09T03:20:34.013Z,100.00
2024-05-09T03:23:02.953Z,100.00
2024-05-09T03:25:29.982Z,100.00
2024-05-09T03:27:56.792Z,100.00
2024-05-09T03:30:35.972Z,100.00
2024-05-09T03:33:11.055Z,100.00
2024-05-09T03:35:38.296Z,100.00
2024-05-09T03:38:05.158Z,100.00
2024-05-09T03:40:32.019Z,100.00
2024-05-09T03:42:58.962Z,100.00
2024-05-09T03:45:25.820Z,100.00
2024-05-09T03:47:53.060Z,100.00
2024-05-09T03:50:29.408Z,100.00
2024-05-09T03:53:00.603Z,100.00
2024-05-09T03:55:27.628Z,100.00
2024-05-09T03:57:54.325Z,100.00
2024-05-09T04:00:30.495Z,100.00
2024-05-09T04:03:02.964Z,100.00
2024-05-09T04:05:31.213Z,100.00
2024-05-09T04:07:58.369Z,100.00
2024-05-09T04:10:32.445Z,100.00
2024-05-09T04:13:01.109Z,100.00
2024-05-09T04:15:27.876Z,100.00
2024-05-09T04:17:54.753Z,100.00
2024-05-09T04:20:32.633Z,100.00
2024-05-09T04:23:11.157Z,100.00
2024-05-09T04:25:38.692Z,100.00
2024-05-09T04:28:07.009Z,100.00
2024-05-09T04:30:38.437Z,100.00
2024-05-09T04:33:10.450Z,100.00
2024-05-09T04:35:39.351Z,100.00
2024-05-09T04:38:06.625Z,100.00
2024-05-09T04:40:36.100Z,100.00
2024-05-09T04:43:04.969Z,100.00
2024-05-09T04:45:31.776Z,100.00
2024-05-09T04:47:58.765Z,100.00
2024-05-09T04:50:35.263Z,100.00
2024-05-09T04:53:05.819Z,100.00
2024-05-09T04:55:33.397Z,100.00
2024-05-09T04:58:00.126Z,100.00
2024-05-09T05:00:32.647Z,100.00
2024-05-09T05:03:07.336Z,100.00
2024-05-09T05:05:38.271Z,100.00
2024-05-09T05:08:05.973Z,100.00
2024-05-09T05:10:36.284Z,100.00
2024-05-09T05:13:18.089Z,100.00
2024-05-09T05:15:46.815Z,100.00
2024-05-09T05:18:15.374Z,100.00
2024-05-09T05:20:42.762Z,100.00
2024-05-09T05:23:14.382Z,100.00
2024-05-09T05:25:42.442Z,100.00
2024-05-09T05:28:09.182Z,100.00
2024-05-09T05:30:37.942Z,100.00
2024-05-09T05:33:06.131Z,100.00
2024-05-09T05:35:33.632Z,98.02
2024-05-09T05:38:00.675Z,97.53
2024-05-09T05:40:33.481Z,97.43
2024-05-09T05:43:11.030Z,95.32
2024-05-09T05:45:39.265Z,93.19
2024-05-09T05:48:07.921Z,92.54
2024-05-09T05:50:37.426Z,90.80
2024-05-09T05:53:09.343Z,88.41
2024-05-09T05:55:41.139Z,86.48
2024-05-09T05:58:15.066Z,85.91
2024-05-09T06:00:42.698Z,85.33
2024-05-09T06:03:10.819Z,84.89
2024-05-09T06:05:40.608Z,84.37
2024-05-09T06:08:08.016Z,83.34
2024-05-09T06:10:38.998Z,81.49
2024-05-09T06:13:10.666Z,82.04
2024-05-09T06:15:37.671Z,81.24
2024-05-09T06:18:09.071Z,79.68
2024-05-09T06:20:38.078Z,77.90
2024-05-09T06:23:10.025Z,77.44
2024-05-09T06:25:37.267Z,77.18
2024-05-09T06:28:04.464Z,76.05
2024-05-09T06:30:39.031Z,74.94
2024-05-09T06:33:09.910Z,74.83
2024-05-09T06:35:38.076Z,74.32
2024-05-09T06:38:05.271Z,72.86
2024-05-09T06:40:38.019Z,72.26
2024-05-09T06:43:13.661Z,72.03
2024-05-09T06:45:40.557Z,71.00
2024-05-09T06:48:08.482Z,70.25
2024-05-09T06:50:38.107Z,69.23
2024-05-09T06:53:06.636Z,69.46
2024-05-09T06:55:33.479Z,69.99
2024-05-09T06:58:00.406Z,67.70
2024-05-09T07:00:35.120Z,66.93
2024-05-09T07:03:11.116Z,70.27
2024-05-09T07:05:39.157Z,67.58
2024-05-09T07:08:06.908Z,66.20
2024-05-09T07:10:35.961Z,67.27
2024-05-09T07:13:03.661Z,66.06
2024-05-09T07:15:30.405Z,65.86
2024-05-09T07:17:57.328Z,66.96
2024-05-09T07:20:32.288Z,66.51
2024-05-09T07:23:03.164Z,65.24
2024-05-09T07:25:30.470Z,66.15
2024-05-09T07:27:57.341Z,65.54
2024-05-09T07:30:32.664Z,63.78
2024-05-09T07:33:01.529Z,62.45
2024-05-09T07:35:29.108Z,63.42
2024-05-09T07:37:56.204Z,63.15
2024-05-09T07:40:32.689Z,63.40
2024-05-09T07:43:13.342Z,62.12
2024-05-09T07:45:49.902Z,61.63
2024-05-09T07:53:38.851Z,59.51
2024-05-09T07:56:09.416Z,60.68
2024-05-09T07:58:37.130Z,58.16
2024-05-09T08:01:04.095Z,58.90
2024-05-09T08:03:31.507Z,57.72
2024-05-09T08:05:58.266Z,59.50
2024-05-09T08:08:24.991Z,60.07
2024-05-09T08:10:51.747Z,57.99
2024-05-09T08:13:18.720Z,56.92
2024-05-09T08:15:45.696Z,57.97
2024-05-09T08:18:12.851Z,58.46
2024-05-09T08:20:40.487Z,56.63
2024-05-09T08:23:07.977Z,55.21
2024-05-09T08:25:34.722Z,54.10
2024-05-09T08:28:01.524Z,53.28
2024-05-09T08:30:33.808Z,55.52
2024-05-09T08:33:05.117Z,54.25
2024-05-09T08:35:32.802Z,53.84
2024-05-09T08:37:59.974Z,55.60
2024-05-09T08:40:34.119Z,57.32
2024-05-09T08:43:06.500Z,56.49
2024-05-09T08:45:35.102Z,55.48
2024-05-09T08:48:06.263Z,53.59
2024-05-09T08:50:38.797Z,54.45
2024-05-09T08:53:07.329Z,52.40
2024-05-09T08:55:34.046Z,55.92
2024-05-09T08:58:03.687Z,55.10
2024-05-09T09:00:36.854Z,53.76
2024-05-09T09:03:09.236Z,50.84
2024-05-09T09:05:38.697Z,52.61
2024-05-09T09:08:08.240Z,52.52
2024-05-09T09:10:35.858Z,51.76
2024-05-09T09:13:04.915Z,51.64
2024-05-09T09:15:32.689Z,51.34
2024-05-09T09:18:00.835Z,51.86
2024-05-09T09:20:35.685Z,51.38
2024-05-09T09:23:04.725Z,50.27
2024-05-09T09:25:31.919Z,49.68
2024-05-09T09:27:58.966Z,48.29
2024-05-09T09:30:36.269Z,47.24
2024-05-09T09:33:06.070Z,46.77
2024-05-09T09:35:33.223Z,45.08
2024-05-09T09:38:04.565Z,45.62
2024-05-09T09:40:37.562Z,46.28
2024-05-09T09:43:14.791Z,45.21
2024-05-09T09:45:44.252Z,46.23
2024-05-09T09:48:14.821Z,45.88
2024-05-09T09:50:42.548Z,46.72
2024-05-09T09:53:10.562Z,45.80
2024-05-09T09:55:39.810Z,44.87
2024-05-09T09:58:09.673Z,46.14
2024-05-09T10:00:38.745Z,46.07
2024-05-09T10:03:05.633Z,48.25
2024-05-09T10:05:33.989Z,48.00
2024-05-09T10:08:05.765Z,47.42
2024-05-09T10:10:34.865Z,46.38
2024-05-09T10:13:09.022Z,44.58
2024-05-09T10:15:51.271Z,44.96
2024-05-09T10:18:28.394Z,45.56
2024-05-09T10:20:57.681Z,47.12
2024-05-09T10:23:29.517Z,46.07
2024-05-09T10:26:03.770Z,46.44
2024-05-09T10:28:32.007Z,45.28
2024-05-09T10:31:12.128Z,45.33
2024-05-09T10:33:45.010Z,46.57
2024-05-09T10:36:20.132Z,45.59
2024-05-09T10:38:46.976Z,45.82
2024-05-09T10:41:13.940Z,44.67
2024-05-09T10:43:42.505Z,45.39
2024-05-09T10:46:13.859Z,44.33
2024-05-09T10:48:43.576Z,43.25
2024-05-09T10:51:11.487Z,44.70
2024-05-09T10:53:45.597Z,44.70
2024-05-09T10:56:15.934Z,46.01
2024-05-09T10:58:43.009Z,46.63
2024-05-09T11:01:10.476Z,44.93
2024-05-09T11:03:38.410Z,44.75
2024-05-09T11:06:06.524Z,43.66
2024-05-09T11:08:34.187Z,44.92
2024-05-09T11:11:03.241Z,44.24
2024-05-09T11:13:31.859Z,44.04
2024-05-09T11:16:00.260Z,44.77
2024-05-09T11:18:32.295Z,44.59
2024-05-09T11:21:02.421Z,43.94
2024-05-09T11:23:32.187Z,42.89
2024-05-09T11:25:59.158Z,43.98
2024-05-09T11:28:28.786Z,44.80
2024-05-09T11:31:06.628Z,44.94
2024-05-09T11:33:37.253Z,44.39
2024-05-09T11:36:05.387Z,44.81
2024-05-09T11:38:33.621Z,44.08
2024-05-09T11:41:00.379Z,43.77
2024-05-09T11:43:27.172Z,42.04
2024-05-09T11:45:54.304Z,42.21
2024-05-09T11:48:21.174Z,43.03
2024-05-09T11:50:50.341Z,43.91
2024-05-09T11:53:17.084Z,44.48
2024-05-09T11:55:43.753Z,44.15
2024-05-09T11:58:12.545Z,44.28
2024-05-09T12:00:39.494Z,43.21
2024-05-09T12:03:06.484Z,43.03
2024-05-09T12:05:34.383Z,42.32
2024-05-09T12:08:02.053Z,43.98
2024-05-09T12:10:33.568Z,43.63
2024-05-09T12:13:04.891Z,43.98
2024-05-09T12:15:33.277Z,44.30
2024-05-09T12:18:03.335Z,43.97
2024-05-09T12:20:36.805Z,44.72
2024-05-09T12:23:06.158Z,43.98
2024-05-09T12:25:33.047Z,43.25
2024-05-09T12:28:00.512Z,42.81
2024-05-09T12:30:35.610Z,44.78
2024-05-09T12:33:07.474Z,45.63
2024-05-09T12:35:34.429Z,45.47
2024-05-09T12:38:01.199Z,45.85
2024-05-09T12:40:35.531Z,44.99
2024-05-09T12:43:06.584Z,45.41
2024-05-09T12:45:33.779Z,45.03
2024-05-09T12:48:01.381Z,44.81
2024-05-09T12:50:32.702Z,44.77
2024-05-09T12:53:12.700Z,45.32
2024-05-09T12:55:47.971Z,44.38
2024-05-09T12:58:22.203Z,43.24
2024-05-09T13:00:49.251Z,42.20
2024-05-09T13:03:16.203Z,42.74
2024-05-09T13:05:45.142Z,42.85
2024-05-09T13:08:13.074Z,42.72
2024-05-09T13:10:39.987Z,43.06
2024-05-09T13:13:06.768Z,44.35
2024-05-09T13:15:39.965Z,44.93
2024-05-09T13:18:07.197Z,43.57
2024-05-09T13:20:36.583Z,45.00
2024-05-09T13:23:05.556Z,43.61
2024-05-09T13:25:34.916Z,44.49
2024-05-09T13:28:02.160Z,43.56
2024-05-09T13:30:38.091Z,45.29
2024-05-09T13:33:08.828Z,46.89
2024-05-09T13:35:36.272Z,47.79
2024-05-09T13:38:03.992Z,47.44
2024-05-09T13:40:34.568Z,47.20
2024-05-09T13:43:06.606Z,46.43
2024-05-09T13:45:34.325Z,45.85
2024-05-09T13:48:02.830Z,46.72
2024-05-09T13:50:35.910Z,46.83
2024-05-09T13:53:08.725Z,45.90
2024-05-09T13:55:39.803Z,46.39
2024-05-09T13:58:07.567Z,45.91
2024-05-09T14:03:04.888Z,47.51
2024-05-09T14:05:31.866Z,46.55
2024-05-09T14:07:58.624Z,46.97
2024-05-09T14:10:30.538Z,45.94
2024-05-09T14:12:58.175Z,47.60
2024-05-09T14:15:25.052Z,47.86
2024-05-09T14:17:52.021Z,49.57
2024-05-09T14:20:28.437Z,49.39
2024-05-09T14:22:58.293Z,49.15
2024-05-09T14:25:26.783Z,49.30
2024-05-09T14:27:54.208Z,49.14
2024-05-09T14:30:30.319Z,48.55
2024-05-09T14:33:03.745Z,49.51
2024-05-09T14:35:30.798Z,49.29
2024-05-09T14:37:57.687Z,49.07
2024-05-09T14:42:54.091Z,49.02
2024-05-09T14:45:24.578Z,49.46
2024-05-09T14:47:51.447Z,49.51
2024-05-09T14:50:27.381Z,50.52
2024-05-09T14:52:59.271Z,50.64
2024-05-09T14:55:26.374Z,50.16
2024-05-09T14:57:53.242Z,49.63
2024-05-09T15:00:26.301Z,48.51
2024-05-09T15:02:59.644Z,46.70
2024-05-09T15:05:26.646Z,47.42
2024-05-09T15:07:53.563Z,48.16
2024-05-09T15:10:27.059Z,50.07
2024-05-09T15:13:00.930Z,49.45
2024-05-09T15:15:27.781Z,48.97
2024-05-09T15:17:55.319Z,48.83
2024-05-09T15:20:31.000Z,50.66
2024-05-09T15:23:02.411Z,51.14
2024-05-09T15:25:29.440Z,51.27
2024-05-09T15:27:56.616Z,51.49
2024-05-09T15:30:30.572Z,51.19
2024-05-09T15:33:00.538Z,50.67
2024-05-09T15:35:27.673Z,50.57
2024-05-09T15:37:54.560Z,51.75
2024-05-09T15:40:30.889Z,53.46
2024-05-09T15:43:05.558Z,52.77
2024-05-09T15:45:32.698Z,51.75
2024-05-09T15:48:00.123Z,51.71
2024-05-09T15:50:35.830Z,51.74
2024-05-09T15:53:06.974Z,52.59
2024-05-09T15:55:34.854Z,53.90
2024-05-09T15:58:04.370Z,52.75
2024-05-09T16:03:01.438Z,53.76
2024-05-09T16:05:28.373Z,54.94
2024-05-09T16:07:55.338Z,54.24
2024-05-09T16:10:26.019Z,54.07
2024-05-09T16:12:59.107Z,54.97
2024-05-09T16:15:26.147Z,55.43
2024-05-09T16:17:53.251Z,54.84
2024-05-09T16:20:33.257Z,55.29
2024-05-09T16:23:05.542Z,55.89
2024-05-09T16:25:33.382Z,55.46
2024-05-09T16:28:00.609Z,54.43
2024-05-09T16:30:34.079Z,55.34
2024-05-09T16:33:04.548Z,54.59
2024-05-09T16:35:32.293Z,55.03
2024-05-09T16:37:59.201Z,55.42
2024-05-09T16:40:34.687Z,55.15
2024-05-09T16:43:06.643Z,56.09
2024-05-09T16:45:37.098Z,56.92
2024-05-09T16:48:04.726Z,57.17
2024-05-09T16:50:34.495Z,57.35
2024-05-09T16:53:03.696Z,57.62
2024-05-09T16:55:31.293Z,59.03
2024-05-09T16:57:58.480Z,59.87
2024-05-09T17:00:36.273Z,60.94
2024-05-09T17:03:09.758Z,60.64
2024-05-09T17:05:37.262Z,60.28
2024-05-09T17:08:04.707Z,60.86
2024-05-09T17:10:33.938Z,61.05
2024-05-09T17:13:03.363Z,61.40
2024-05-09T17:15:32.037Z,60.78
2024-05-09T17:17:59.133Z,60.05
2024-05-09T17:20:32.433Z,60.61
2024-05-09T17:23:04.081Z,60.77
2024-05-09T17:25:31.009Z,61.08
2024-05-09T17:28:05.198Z,60.47
2024-05-09T17:30:36.317Z,60.23
2024-05-09T17:33:06.505Z,59.54
2024-05-09T17:35:33.384Z,59.92
2024-05-09T17:38:01.809Z,59.86
2024-05-09T17:40:33.618Z,60.05
2024-05-09T17:43:04.143Z,60.25
2024-05-09T17:45:31.948Z,59.59
2024-05-09T17:47:59.239Z,59.86
2024-05-09T17:50:33.871Z,60.04
2024-05-09T17:53:03.223Z,59.60
2024-05-09T17:55:30.209Z,59.64
2024-05-09T17:57:57.323Z,59.84
2024-05-09T18:00:33.515Z,59.71
2024-05-09T18:03:06.482Z,60.11
2024-05-09T18:05:35.914Z,60.28
2024-05-09T18:08:03.709Z,60.50
2024-05-09T18:10:36.426Z,60.73
2024-05-09T18:13:06.517Z,60.80
2024-05-09T18:15:33.887Z,61.40
2024-05-09T18:18:01.718Z,61.68
2024-05-09T18:20:37.750Z,62.35
2024-05-09T18:23:10.602Z,62.81
2024-05-09T18:25:37.463Z,65.68
2024-05-09T18:28:04.742Z,68.17
2024-05-09T18:30:35.018Z,74.27
2024-05-09T18:33:04.968Z,76.97
2024-05-09T18:35:32.789Z,78.95
2024-05-09T18:37:59.598Z,79.38
2024-05-09T18:40:33.214Z,79.71
2024-05-09T18:43:04.884Z,80.82
2024-05-09T18:45:32.615Z,80.51
2024-05-09T18:47:59.763Z,74.92
2024-05-09T18:50:35.254Z,76.13
2024-05-09T18:53:08.834Z,78.30
2024-05-09T18:55:35.670Z,78.87
2024-05-09T18:58:04.085Z,76.32
2024-05-09T19:00:35.691Z,77.44
2024-05-09T19:03:09.604Z,77.59
2024-05-09T19:05:39.180Z,76.47
2024-05-09T19:08:07.511Z,75.38
2024-05-09T19:10:35.766Z,74.01
2024-05-09T19:13:08.191Z,74.13
2024-05-09T19:15:39.325Z,75.21
2024-05-09T19:18:06.854Z,77.04
2024-05-09T19:20:35.605Z,77.12
2024-05-09T19:23:03.946Z,77.85
2024-05-09T19:25:30.873Z,77.72
2024-05-09T19:27:57.679Z,77.72
2024-05-09T19:30:30.334Z,78.38
2024-05-09T19:33:06.039Z,78.12
2024-05-09T19:35:33.113Z,77.96
2024-05-09T19:37:59.989Z,77.58
2024-05-09T19:40:31.508Z,77.36
2024-05-09T19:43:01.153Z,77.21
2024-05-09T19:45:28.175Z,78.63
2024-05-09T19:47:55.386Z,79.36
2024-05-09T19:50:30.817Z,79.74
2024-05-09T19:53:03.959Z,80.44
2024-05-09T19:55:30.610Z,80.09
2024-05-09T19:57:57.809Z,79.76
2024-05-09T20:00:32.576Z,78.60
2024-05-09T20:03:02.864Z,77.20
2024-05-09T20:05:32.821Z,76.89
2024-05-09T20:07:59.887Z,76.59
2024-05-09T20:10:31.678Z,76.49
2024-05-09T20:13:00.696Z,76.98
2024-05-09T20:15:27.421Z,76.99
2024-05-09T20:17:54.619Z,76.92
2024-05-09T20:20:32.153Z,77.11
2024-05-09T20:23:04.263Z,77.19
2024-05-09T20:25:30.887Z,76.79
2024-05-09T20:27:57.761Z,77.14
2024-05-09T20:30:31.344Z,77.57
2024-05-09T20:33:00.529Z,77.83
2024-05-09T20:35:27.456Z,78.39
2024-05-09T20:37:54.039Z,78.66
2024-05-09T20:40:28.431Z,78.69
2024-05-09T20:42:59.402Z,79.08
2024-05-09T20:45:26.353Z,78.75
2024-05-09T20:47:53.252Z,79.08
2024-05-09T20:50:28.521Z,80.34
2024-05-09T20:53:03.102Z,80.65
2024-05-09T20:55:30.147Z,81.69
2024-05-09T20:57:57.257Z,81.49
2024-05-09T21:00:33.701Z,81.76
2024-05-09T21:03:06.331Z,83.11
2024-05-09T21:05:33.711Z,83.64
2024-05-09T21:08:00.735Z,83.90
2024-05-09T21:10:31.576Z,83.54
2024-05-09T21:12:59.686Z,83.10
2024-05-09T21:15:26.376Z,81.95
2024-05-09T21:17:53.035Z,80.75
2024-05-09T21:20:24.306Z,78.95
2024-05-09T21:22:57.665Z,78.57
2024-05-09T21:25:24.452Z,78.41
2024-05-09T21:27:51.333Z,78.13
2024-05-09T21:30:27.282Z,78.18
2024-05-09T21:32:59.932Z,77.82
2024-05-09T21:35:26.761Z,78.15
2024-05-09T21:37:53.411Z,79.26
2024-05-09T21:40:27.376Z,79.82
2024-05-09T21:43:01.138Z,79.89
2024-05-09T21:45:27.968Z,80.51
2024-05-09T21:47:54.876Z,80.89
2024-05-09T21:50:28.197Z,80.17
2024-05-09T21:53:02.461Z,79.99
2024-05-09T21:55:29.188Z,80.31
2024-05-09T21:57:56.707Z,79.86
2024-05-09T22:00:31.643Z,80.49
2024-05-09T22:03:02.610Z,80.31
2024-05-09T22:05:29.503Z,80.51
2024-05-09T22:07:57.108Z,80.20
2024-05-09T22:10:30.540Z,80.38
2024-05-09T22:13:00.871Z,79.74
2024-05-09T22:15:27.576Z,79.72
2024-05-09T22:17:55.764Z,78.65
2024-05-09T22:20:29.321Z,78.71
2024-05-09T22:23:03.366Z,77.35
2024-05-09T22:25:31.178Z,76.90
2024-05-09T22:27:58.873Z,76.10
2024-05-09T22:30:34.182Z,74.83
2024-05-09T22:33:05.668Z,73.75
2024-05-09T22:35:32.836Z,74.81
2024-05-09T22:37:59.977Z,76.47
2024-05-09T22:40:38.299Z,76.76
2024-05-09T22:43:13.316Z,76.77
2024-05-09T22:45:40.390Z,77.01
2024-05-09T22:48:08.380Z,77.97
2024-05-09T22:50:35.255Z,77.78
2024-05-09T22:53:02.168Z,78.45
2024-05-09T22:55:28.987Z,80.09
2024-05-09T22:57:55.832Z,81.91
2024-05-09T23:00:30.901Z,82.33
2024-05-09T23:03:00.332Z,83.85
2024-05-09T23:05:27.405Z,84.12
2024-05-09T23:07:54.093Z,84.34
2024-05-09T23:10:27.923Z,85.36
2024-05-09T23:13:00.859Z,86.61
2024-05-09T23:15:27.669Z,87.99
2024-05-09T23:17:54.431Z,89.19
2024-05-09T23:20:30.060Z,89.70
2024-05-09T23:23:03.678Z,90.46
2024-05-09T23:25:30.357Z,92.91
2024-05-09T23:27:57.155Z,93.86
2024-05-09T23:30:33.306Z,94.20
2024-05-09T23:33:04.925Z,95.78
2024-05-09T23:35:31.759Z,95.68
2024-05-09T23:37:58.393Z,96.32
2024-05-09T23:40:36.384Z,96.50
2024-05-09T23:43:06.302Z,96.20
2024-05-09T23:45:33.166Z,95.49
2024-05-09T23:48:00.043Z,96.63
2024-05-09T23:50:34.109Z,97.60
2024-05-09T23:53:03.976Z,98.66
2024-05-09T23:55:31.553Z,100.00
2024-05-09T23:57:58.520Z,100.00
